createdAt,value
2023-04-20T00:00:58.353Z,4.68
2023-04-20T00:03:26.570Z,4.80
2023-04-20T00:05:53.494Z,4.32
2023-04-20T00:08:19.990Z,4.82
2023-04-20T00:10:46.907Z,5.15
2023-04-20T00:13:13.393Z,5.35
2023-04-20T00:15:39.851Z,5.70
2023-04-20T00:18:06.559Z,4.90
2023-04-20T00:20:33.456Z,4.95
2023-04-20T00:22:59.885Z,5.63
2023-04-20T00:25:26.380Z,5.72
2023-04-20T00:27:52.818Z,5.57
2023-04-20T00:30:19.312Z,5.25
2023-04-20T00:32:45.797Z,5.47
2023-04-20T00:35:13.077Z,7.45
2023-04-20T00:37:40.874Z,6.40
2023-04-20T00:40:07.921Z,6.70
2023-04-20T00:42:34.659Z,6.55
2023-04-20T00:45:01.278Z,7.03
2023-04-20T00:47:27.769Z,7.30
2023-04-20T00:49:54.859Z,6.75
2023-04-20T00:52:21.350Z,6.15
2023-04-20T00:54:47.858Z,6.50
2023-04-20T00:57:18.660Z,7.65
2023-04-20T00:59:45.311Z,7.35
2023-04-20T01:02:12.075Z,6.53
2023-04-20T01:04:41.256Z,5.70
2023-04-20T01:07:07.718Z,8.07
2023-04-20T01:09:34.199Z,7.53
2023-04-20T01:12:01.682Z,6.68
2023-04-20T01:14:28.164Z,7.72
2023-04-20T01:16:56.368Z,7.50
2023-04-20T01:19:22.913Z,6.80
2023-04-20T01:21:49.420Z,7.55
2023-04-20T01:24:15.985Z,7.80
2023-04-20T01:26:42.444Z,7.18
2023-04-20T01:29:08.893Z,8.50
2023-04-20T01:31:35.674Z,7.28
2023-04-20T01:34:02.209Z,7.35
2023-04-20T01:36:28.752Z,8.57
2023-04-20T01:38:56.015Z,9.30
2023-04-20T01:41:22.550Z,7.95
2023-04-20T01:43:49.058Z,7.90
2023-04-20T01:46:15.629Z,8.88
2023-04-20T01:48:42.191Z,7.82
2023-04-20T01:51:09.564Z,8.55
2023-04-20T01:53:36.059Z,7.65
2023-04-20T01:56:02.561Z,8.68
2023-04-20T01:58:29.253Z,8.00
2023-04-20T02:00:55.985Z,7.22
2023-04-20T02:03:22.674Z,7.75
2023-04-20T02:05:49.470Z,9.95
2023-04-20T02:08:15.957Z,9.68
2023-04-20T02:10:42.438Z,8.20
2023-04-20T02:13:08.998Z,8.27
2023-04-20T02:15:35.593Z,8.38
2023-04-20T02:18:02.151Z,8.85
2023-04-20T02:20:28.669Z,9.07
2023-04-20T02:22:55.232Z,8.63
2023-04-20T02:25:21.885Z,9.60
2023-04-20T02:27:48.357Z,10.63
2023-04-20T02:30:14.937Z,9.40
2023-04-20T02:32:42.548Z,11.70
2023-04-20T02:35:09.485Z,10.23
2023-04-20T02:37:36.009Z,9.70
2023-04-20T02:40:05.055Z,10.18
2023-04-20T02:42:31.632Z,10.55
2023-04-20T02:44:59.572Z,9.70
2023-04-20T02:47:26.392Z,8.60
2023-04-20T02:49:54.386Z,8.95
2023-04-20T02:52:20.886Z,9.52
2023-04-20T02:54:47.473Z,8.82
2023-04-20T02:57:14.122Z,8.63
2023-04-20T02:59:41.022Z,9.40
2023-04-20T03:02:16.391Z,8.52
2023-04-20T03:04:43.062Z,9.18
2023-04-20T03:07:17.815Z,9.20
2023-04-20T03:09:44.980Z,10.73
2023-04-20T03:12:37.274Z,9.55
2023-04-20T03:15:28.898Z,10.40
2023-04-20T03:18:02.008Z,8.98
2023-04-20T03:20:29.399Z,10.60
2023-04-20T03:22:56.017Z,10.32
2023-04-20T03:25:24.531Z,10.15
2023-04-20T03:27:54.541Z,11.52
2023-04-20T03:30:21.597Z,10.95
2023-04-20T03:32:53.797Z,11.23
2023-04-20T03:35:21.014Z,10.45
2023-04-20T03:37:47.801Z,10.43
2023-04-20T03:40:15.472Z,10.35
2023-04-20T03:42:41.928Z,10.60
2023-04-20T03:45:08.840Z,11.23
2023-04-20T03:47:35.393Z,11.23
2023-04-20T03:50:01.908Z,11.65
2023-04-20T03:52:28.676Z,10.20
2023-04-20T03:54:58.367Z,11.38
2023-04-20T03:57:24.939Z,11.50
2023-04-20T03:59:51.662Z,13.30
2023-04-20T04:02:22.602Z,11.98
2023-04-20T04:04:50.981Z,12.18
2023-04-20T04:07:17.591Z,10.57
2023-04-20T04:09:44.122Z,10.25
2023-04-20T04:12:12.312Z,12.18
2023-04-20T04:14:39.352Z,13.50
2023-04-20T04:17:07.967Z,12.02
2023-04-20T04:19:37.095Z,10.43
2023-04-20T04:22:04.168Z,11.68
2023-04-20T04:24:37.766Z,11.77
2023-04-20T04:27:07.512Z,12.48
2023-04-20T04:29:39.214Z,12.02
2023-04-20T04:32:11.861Z,12.40
2023-04-20T04:34:39.040Z,11.05
2023-04-20T04:37:05.553Z,12.80
2023-04-20T04:39:41.267Z,12.07
2023-04-20T04:42:15.124Z,10.05
2023-04-20T04:44:43.551Z,10.80
2023-04-20T04:47:14.252Z,12.13
2023-04-20T04:49:40.817Z,11.75
2023-04-20T04:52:08.577Z,12.43
2023-04-20T04:54:35.576Z,12.93
2023-04-20T04:57:02.613Z,12.05
2023-04-20T04:59:29.101Z,12.88
2023-04-20T05:01:55.739Z,11.70
2023-04-20T05:04:22.523Z,12.20
2023-04-20T05:06:49.027Z,13.45
2023-04-20T05:09:16.367Z,13.07
2023-04-20T05:11:43.035Z,14.48
2023-04-20T05:14:09.618Z,12.23
2023-04-20T05:16:36.250Z,13.63
2023-04-20T05:19:02.794Z,13.55
2023-04-20T05:21:29.271Z,15.45
2023-04-20T05:23:55.736Z,14.50
2023-04-20T05:26:22.208Z,15.00
2023-04-20T05:28:48.696Z,12.88
2023-04-20T05:31:15.812Z,12.68
2023-04-20T05:33:42.366Z,12.95
2023-04-20T05:36:10.277Z,12.25
2023-04-20T05:38:36.806Z,12.73
2023-04-20T05:41:03.289Z,13.82
2023-04-20T05:43:29.801Z,13.30
2023-04-20T05:45:56.294Z,14.60
2023-04-20T05:48:22.781Z,12.63
2023-04-20T05:50:49.280Z,12.25
2023-04-20T05:53:15.889Z,11.85
2023-04-20T05:55:42.421Z,15.30
2023-04-20T05:58:08.987Z,13.60
2023-04-20T06:00:35.667Z,11.82
2023-04-20T06:03:02.297Z,11.63
2023-04-20T06:05:29.049Z,11.80
2023-04-20T06:07:55.752Z,12.60
2023-04-20T06:10:22.293Z,14.23
2023-04-20T06:12:48.795Z,15.48
2023-04-20T06:15:15.416Z,15.60
2023-04-20T06:17:42.011Z,12.93
2023-04-20T06:20:11.746Z,13.18
2023-04-20T06:22:45.450Z,12.13
2023-04-20T06:25:12.635Z,10.07
2023-04-20T06:27:39.630Z,12.23
2023-04-20T06:30:06.624Z,10.23
2023-04-20T06:32:33.166Z,10.80
2023-04-20T06:34:59.845Z,10.60
2023-04-20T06:37:26.332Z,8.77
2023-04-20T06:39:56.050Z,8.63
2023-04-20T06:42:22.717Z,8.50
2023-04-20T06:44:50.131Z,9.00
2023-04-20T06:47:16.587Z,8.68
2023-04-20T06:49:43.453Z,8.65
2023-04-20T06:52:10.433Z,9.25
2023-04-20T06:54:39.524Z,8.60
2023-04-20T06:57:06.207Z,7.88
2023-04-20T06:59:33.247Z,8.20
2023-04-20T07:01:59.880Z,8.40
2023-04-20T07:04:26.812Z,8.60
2023-04-20T07:06:54.336Z,8.43
2023-04-20T07:09:21.102Z,8.23
2023-04-20T07:11:47.607Z,8.90
2023-04-20T07:14:14.393Z,7.43
2023-04-20T07:16:41.018Z,6.53
2023-04-20T07:19:07.680Z,7.70
2023-04-20T07:21:35.575Z,6.70
2023-04-20T07:24:02.237Z,8.60
2023-04-20T07:26:28.821Z,7.38
2023-04-20T07:28:55.433Z,9.52
2023-04-20T07:31:22.003Z,11.13
2023-04-20T07:33:48.563Z,10.57
2023-04-20T07:36:15.101Z,10.43
2023-04-20T07:38:41.578Z,11.23
2023-04-20T07:41:11.261Z,9.25
2023-04-20T07:43:38.907Z,12.32
2023-04-20T07:46:05.686Z,12.98
2023-04-20T07:48:36.504Z,17.15
2023-04-20T07:51:03.112Z,12.35
2023-04-20T07:53:29.684Z,10.98
2023-04-20T07:58:22.926Z,11.88
2023-04-20T08:00:49.478Z,9.50
2023-04-20T08:03:16.273Z,9.05
2023-04-20T08:05:43.102Z,8.60
2023-04-20T08:08:09.647Z,11.40
2023-04-20T08:10:36.471Z,9.35
2023-04-20T08:13:03.000Z,12.45
2023-04-20T08:15:29.538Z,11.48
2023-04-20T08:17:56.759Z,11.00
2023-04-20T08:20:23.238Z,10.45
2023-04-20T08:22:50.655Z,10.45
2023-04-20T08:25:17.184Z,11.68
2023-04-20T08:27:43.658Z,11.93
2023-04-20T08:30:10.522Z,12.23
2023-04-20T08:32:37.103Z,11.65
2023-04-20T08:35:04.893Z,12.05
2023-04-20T08:37:32.943Z,12.35
2023-04-20T08:39:59.708Z,12.00
2023-04-20T08:42:29.631Z,11.05
2023-04-20T08:44:58.481Z,10.27
2023-04-20T08:47:25.936Z,8.30
2023-04-20T08:49:54.207Z,8.10
2023-04-20T08:52:20.713Z,8.63
2023-04-20T08:54:55.951Z,8.80
2023-04-20T08:57:24.793Z,9.20
2023-04-20T08:59:51.835Z,7.07
2023-04-20T09:02:18.401Z,6.90
2023-04-20T09:04:48.997Z,6.93
2023-04-20T09:07:20.467Z,7.60
2023-04-20T09:09:54.847Z,8.80
2023-04-20T09:12:22.751Z,9.82
2023-04-20T09:14:49.501Z,9.45
2023-04-20T09:17:17.773Z,10.43
2023-04-20T09:19:45.985Z,10.45
2023-04-20T09:22:12.782Z,10.05
2023-04-20T09:24:41.182Z,9.77
2023-04-20T09:27:18.121Z,10.30
2023-04-20T09:29:45.364Z,9.65
2023-04-20T09:32:22.757Z,8.98
2023-04-20T09:34:49.822Z,8.63
2023-04-20T09:37:19.178Z,7.55
2023-04-20T09:39:46.404Z,7.80
2023-04-20T09:42:14.656Z,8.18
2023-04-20T09:44:41.592Z,9.75
2023-04-20T09:47:09.649Z,8.73
2023-04-20T09:49:41.398Z,8.50
2023-04-20T09:52:08.281Z,9.65
2023-04-20T09:54:37.005Z,9.23
2023-04-20T09:57:04.600Z,8.45
2023-04-20T09:59:33.323Z,8.48
2023-04-20T10:01:59.999Z,9.63
2023-04-20T10:04:26.895Z,9.32
2023-04-20T10:06:55.805Z,7.95
2023-04-20T10:09:24.439Z,8.15
2023-04-20T10:11:54.376Z,8.13
2023-04-20T10:14:26.113Z,8.35
2023-04-20T10:17:06.568Z,8.88
2023-04-20T10:19:43.378Z,8.68
2023-04-20T10:22:11.868Z,8.68
2023-04-20T10:24:38.634Z,8.57
2023-04-20T10:27:19.293Z,8.88
2023-04-20T10:29:45.768Z,9.13
2023-04-20T10:32:23.196Z,8.77
2023-04-20T10:35:01.043Z,9.25
2023-04-20T10:37:27.800Z,9.05
2023-04-20T10:39:54.472Z,9.82
2023-04-20T10:42:21.004Z,11.18
2023-04-20T10:44:56.602Z,10.57
2023-04-20T10:47:30.467Z,10.60
2023-04-20T10:50:11.608Z,10.60
2023-04-20T10:52:39.946Z,11.10
2023-04-20T10:55:17.804Z,11.30
2023-04-20T10:57:47.945Z,10.93
2023-04-20T11:00:20.344Z,11.30
2023-04-20T11:02:49.100Z,11.88
2023-04-20T11:05:16.424Z,12.25
2023-04-20T11:08:00.010Z,10.80
2023-04-20T11:10:40.063Z,11.18
2023-04-20T11:13:06.907Z,11.55
2023-04-20T11:15:34.342Z,10.52
2023-04-20T11:18:08.081Z,10.77
2023-04-20T11:20:34.982Z,10.90
2023-04-20T11:23:01.486Z,10.18
2023-04-20T11:25:28.107Z,10.80
2023-04-20T11:28:04.969Z,10.23
2023-04-20T11:30:41.998Z,10.13
2023-04-20T11:33:09.742Z,10.13
2023-04-20T11:35:38.428Z,9.65
2023-04-20T11:38:04.915Z,10.23
2023-04-20T11:40:31.422Z,9.70
2023-04-20T11:42:58.434Z,9.77
2023-04-20T11:45:25.156Z,10.02
2023-04-20T11:47:52.690Z,9.60
2023-04-20T11:50:19.321Z,9.65
2023-04-20T11:52:45.825Z,10.23
2023-04-20T11:55:12.508Z,9.68
2023-04-20T11:57:39.515Z,9.75
2023-04-20T12:00:07.185Z,9.48
2023-04-20T12:02:41.169Z,10.63
2023-04-20T12:05:08.589Z,10.85
2023-04-20T12:07:35.420Z,11.15
2023-04-20T12:10:01.884Z,10.50
2023-04-20T12:12:28.368Z,10.77
2023-04-20T12:14:54.828Z,10.05
2023-04-20T12:17:21.339Z,9.85
2023-04-20T12:19:47.842Z,9.38
2023-04-20T12:22:14.308Z,9.85
2023-04-20T12:24:40.924Z,9.38
2023-04-20T12:27:07.423Z,9.40
2023-04-20T12:29:34.029Z,9.95
2023-04-20T12:32:00.667Z,9.35
2023-04-20T12:34:27.231Z,10.43
2023-04-20T12:36:53.666Z,10.10
2023-04-20T12:39:20.766Z,11.13
2023-04-20T12:41:47.248Z,10.98
2023-04-20T12:44:13.761Z,10.35
2023-04-20T12:46:40.440Z,11.00
2023-04-20T12:49:06.915Z,11.05
2023-04-20T12:51:33.438Z,11.20
2023-04-20T12:54:00.113Z,10.88
2023-04-20T12:56:26.813Z,11.50
2023-04-20T12:58:53.459Z,12.65
2023-04-20T13:01:20.028Z,11.48
2023-04-20T13:03:46.800Z,12.25
2023-04-20T13:06:14.631Z,11.02
2023-04-20T13:08:41.366Z,10.80
2023-04-20T13:11:08.501Z,9.75
2023-04-20T13:13:34.988Z,10.60
2023-04-20T13:16:01.512Z,10.90
2023-04-20T13:18:28.230Z,10.73
2023-04-20T13:20:54.831Z,11.05
2023-04-20T13:23:21.367Z,11.00
2023-04-20T13:25:47.879Z,11.50
2023-04-20T13:28:14.945Z,9.63
2023-04-20T13:30:41.590Z,9.60
2023-04-20T13:33:08.211Z,8.85
2023-04-20T13:35:34.764Z,8.95
2023-04-20T13:38:01.316Z,9.65
2023-04-20T13:40:27.934Z,9.77
2023-04-20T13:42:54.511Z,9.73
2023-04-20T13:45:21.167Z,9.82
2023-04-20T13:47:47.647Z,10.35
2023-04-20T13:50:14.284Z,10.68
2023-04-20T13:52:41.020Z,10.60
2023-04-20T13:55:07.782Z,10.57
2023-04-20T13:57:35.697Z,11.73
2023-04-20T14:00:02.240Z,11.07
2023-04-20T14:02:32.512Z,10.60
2023-04-20T14:04:59.073Z,11.18
2023-04-20T14:07:25.613Z,11.98
2023-04-20T14:09:56.259Z,12.15
2023-04-20T14:12:23.098Z,13.45
2023-04-20T14:14:49.663Z,13.02
2023-04-20T14:17:16.111Z,14.15
2023-04-20T14:19:42.614Z,12.68
2023-04-20T14:22:09.118Z,13.98
2023-04-20T14:24:35.671Z,13.65
2023-04-20T14:27:02.126Z,15.50
2023-04-20T14:29:28.616Z,15.05
2023-04-20T14:31:55.212Z,14.48
2023-04-20T14:34:21.788Z,16.00
2023-04-20T14:36:48.274Z,16.42
2023-04-20T14:39:14.799Z,17.05
2023-04-20T14:41:41.602Z,19.83
2023-04-20T14:44:08.120Z,20.40
2023-04-20T14:46:34.649Z,18.75
2023-04-20T14:49:01.328Z,19.05
2023-04-20T14:51:28.246Z,18.80
2023-04-20T14:53:54.735Z,18.98
2023-04-20T14:56:21.183Z,20.10
2023-04-20T14:58:48.055Z,19.48
2023-04-20T15:01:14.863Z,22.60
2023-04-20T15:03:41.623Z,23.45
2023-04-20T15:06:08.379Z,23.40
2023-04-20T15:08:35.455Z,21.55
2023-04-20T15:11:03.900Z,23.17
2023-04-20T15:13:30.654Z,20.23
2023-04-20T15:15:57.139Z,25.02
2023-04-20T15:18:23.710Z,24.13
2023-04-20T15:20:53.122Z,21.55
2023-04-20T15:23:19.866Z,24.48
2023-04-20T15:25:46.350Z,24.27
2023-04-20T15:28:12.906Z,22.60
2023-04-20T15:30:39.426Z,23.20
2023-04-20T15:33:06.124Z,24.95
2023-04-20T15:35:33.408Z,24.50
2023-04-20T15:37:59.913Z,24.40
2023-04-20T15:40:27.421Z,24.42
2023-04-20T15:42:55.768Z,25.30
2023-04-20T15:45:22.939Z,24.80
2023-04-20T15:47:49.648Z,24.50
2023-04-20T15:50:16.373Z,23.60
2023-04-20T15:52:43.163Z,22.50
2023-04-20T15:55:12.937Z,26.00
2023-04-20T15:57:39.478Z,26.88
2023-04-20T16:00:08.003Z,27.63
2023-04-20T16:02:37.023Z,28.55
2023-04-20T16:05:04.306Z,27.75
2023-04-20T16:07:30.914Z,28.35
2023-04-20T16:09:57.398Z,28.27
2023-04-20T16:12:24.043Z,28.65
2023-04-20T16:14:51.819Z,27.92
2023-04-20T16:17:20.200Z,28.17
2023-04-20T16:19:46.810Z,27.67
2023-04-20T16:22:14.310Z,28.67
2023-04-20T16:24:40.880Z,24.73
2023-04-20T16:27:07.542Z,27.33
2023-04-20T16:29:34.168Z,26.30
2023-04-20T16:32:00.835Z,27.58
2023-04-20T16:34:27.483Z,27.13
2023-04-20T16:36:54.151Z,26.25
2023-04-20T16:39:20.709Z,25.95
2023-04-20T16:41:47.359Z,24.42
2023-04-20T16:44:14.474Z,26.27
2023-04-20T16:46:42.017Z,27.40
2023-04-20T16:49:09.177Z,27.00
2023-04-20T16:51:35.680Z,25.63
2023-04-20T16:54:02.295Z,24.00
2023-04-20T16:56:28.794Z,26.65
2023-04-20T16:58:55.491Z,25.05
2023-04-20T17:01:22.207Z,25.17
2023-04-20T17:03:48.780Z,24.80
2023-04-20T17:06:15.433Z,24.90
2023-04-20T17:08:42.053Z,25.77
2023-04-20T17:11:08.512Z,26.48
2023-04-20T17:13:35.000Z,25.55
2023-04-20T17:16:01.579Z,27.50
2023-04-20T17:18:28.109Z,26.20
2023-04-20T17:20:57.137Z,25.70
2023-04-20T17:23:23.751Z,26.65
2023-04-20T17:25:51.281Z,26.90
2023-04-20T17:28:17.875Z,27.67
2023-04-20T17:30:44.408Z,26.50
2023-04-20T17:33:12.340Z,26.27
2023-04-20T17:35:39.406Z,28.13
2023-04-20T17:38:05.973Z,27.38
2023-04-20T17:40:33.034Z,28.00
2023-04-20T17:42:59.750Z,28.23
2023-04-20T17:45:26.237Z,27.33
2023-04-20T17:47:53.747Z,28.00
2023-04-20T17:50:20.702Z,30.30
2023-04-20T17:52:47.192Z,30.25
2023-04-20T17:55:13.914Z,29.10
2023-04-20T17:57:40.580Z,27.75
2023-04-20T18:00:08.605Z,30.20
2023-04-20T18:02:38.538Z,30.98
2023-04-20T18:05:06.022Z,29.80
2023-04-20T18:07:32.571Z,30.42
2023-04-20T18:09:59.062Z,31.65
2023-04-20T18:12:25.545Z,29.77
2023-04-20T18:14:52.057Z,31.95
2023-04-20T18:17:18.530Z,30.90
2023-04-20T18:19:45.028Z,31.98
2023-04-20T18:22:11.526Z,32.03
2023-04-20T18:24:38.225Z,32.00
2023-04-20T18:27:04.715Z,29.88
2023-04-20T18:29:31.433Z,32.17
2023-04-20T18:32:01.072Z,33.47
2023-04-20T18:34:30.937Z,34.95
2023-04-20T18:36:58.057Z,35.05
2023-04-20T18:39:25.202Z,35.70
2023-04-20T18:41:51.710Z,36.58
2023-04-20T18:44:18.506Z,32.25
2023-04-20T18:46:45.407Z,36.28
2023-04-20T18:49:12.003Z,36.35
2023-04-20T18:51:38.489Z,36.55
2023-04-20T18:54:05.134Z,37.08
2023-04-20T18:56:32.204Z,36.10
2023-04-20T18:58:59.500Z,36.70
2023-04-20T19:01:26.288Z,33.58
2023-04-20T19:03:53.170Z,37.47
2023-04-20T19:06:19.798Z,37.20
2023-04-20T19:08:46.370Z,36.83
2023-04-20T19:11:12.888Z,38.47
2023-04-20T19:13:44.328Z,37.35
2023-04-20T19:16:12.119Z,38.33
2023-04-20T19:18:39.019Z,37.20
2023-04-20T19:21:05.673Z,39.55
2023-04-20T19:23:32.169Z,37.53
2023-04-20T19:25:58.646Z,36.72
2023-04-20T19:28:25.176Z,38.00
2023-04-20T19:30:51.757Z,40.33
2023-04-20T19:33:18.329Z,41.08
2023-04-20T19:35:50.592Z,41.13
2023-04-20T19:38:21.431Z,27.27
2023-04-20T19:40:48.464Z,36.92
2023-04-20T19:43:16.798Z,41.72
2023-04-20T19:45:43.341Z,40.05
2023-04-20T19:48:10.009Z,41.72
2023-04-20T19:50:36.563Z,40.30
2023-04-20T19:53:03.066Z,33.05
2023-04-20T19:55:29.640Z,38.58
2023-04-20T19:57:56.142Z,40.55
2023-04-20T20:00:22.660Z,36.38
2023-04-20T20:02:49.314Z,38.15
2023-04-20T20:05:15.902Z,41.08
2023-04-20T20:07:42.515Z,39.58
2023-04-20T20:10:09.020Z,36.50
2023-04-20T20:12:35.517Z,41.38
2023-04-20T20:15:03.607Z,41.47
2023-04-20T20:17:30.234Z,38.95
2023-04-20T20:19:56.762Z,42.22
2023-04-20T20:22:23.254Z,41.45
2023-04-20T20:24:51.917Z,33.78
2023-04-20T20:27:18.393Z,39.05
2023-04-20T20:29:44.928Z,40.95
2023-04-20T20:32:11.432Z,35.55
2023-04-20T20:34:37.936Z,39.63
2023-04-20T20:37:04.544Z,32.70
2023-04-20T20:39:32.324Z,40.42
2023-04-20T20:41:59.626Z,41.50
2023-04-20T20:44:27.841Z,40.10
2023-04-20T20:46:54.439Z,35.78
2023-04-20T20:49:21.133Z,40.45
2023-04-20T20:51:47.651Z,39.17
2023-04-20T20:54:14.176Z,38.20
2023-04-20T20:56:40.688Z,38.53
2023-04-20T20:59:07.212Z,38.65
2023-04-20T21:01:33.698Z,38.33
2023-04-20T21:04:00.423Z,38.15
2023-04-20T21:06:27.377Z,33.08
2023-04-20T21:08:54.668Z,39.03
2023-04-20T21:11:21.292Z,31.15
2023-04-20T21:13:47.867Z,37.08
2023-04-20T21:16:14.463Z,35.58
2023-04-20T21:18:41.384Z,32.08
2023-04-20T21:21:12.317Z,38.67
2023-04-20T21:23:38.856Z,37.88
2023-04-20T21:26:05.307Z,37.70
2023-04-20T21:28:32.723Z,38.72
2023-04-20T21:30:59.222Z,40.13
2023-04-20T21:33:25.806Z,37.90
2023-04-20T21:35:52.659Z,38.55
2023-04-20T21:38:19.196Z,33.75
2023-04-20T21:40:45.789Z,40.53
2023-04-20T21:43:12.287Z,38.78
2023-04-20T21:45:38.780Z,35.42
2023-04-20T21:48:05.722Z,38.20
2023-04-20T21:50:32.328Z,37.63
2023-04-20T21:52:58.845Z,38.10
2023-04-20T21:55:25.589Z,37.22
2023-04-20T21:57:52.076Z,35.65
2023-04-20T22:00:18.721Z,30.85
2023-04-20T22:02:45.588Z,29.45
2023-04-20T22:05:13.648Z,32.85
2023-04-20T22:07:40.332Z,34.33
2023-04-20T22:10:07.688Z,33.80
2023-04-20T22:12:39.819Z,33.00
2023-04-20T22:15:13.969Z,32.00
2023-04-20T22:20:09.676Z,28.02
2023-04-20T22:22:36.690Z,30.65
2023-04-20T22:25:04.770Z,30.10
2023-04-20T22:27:32.318Z,25.80
2023-04-20T22:29:59.051Z,26.02
2023-04-20T22:32:25.633Z,28.73
2023-04-20T22:34:52.136Z,30.90
2023-04-20T22:37:18.835Z,30.85
2023-04-20T22:39:45.539Z,30.60
2023-04-20T22:42:12.332Z,30.42
2023-04-20T22:44:38.996Z,29.83
2023-04-20T22:47:05.871Z,29.38
2023-04-20T22:49:32.708Z,26.63
2023-04-20T22:51:59.281Z,28.83
2023-04-20T22:54:25.805Z,29.90
2023-04-20T22:56:52.354Z,30.00
2023-04-20T22:59:19.664Z,29.70
2023-04-20T23:01:46.466Z,31.90
2023-04-20T23:04:13.047Z,27.88
2023-04-20T23:06:43.679Z,30.80
2023-04-20T23:09:12.382Z,30.48
2023-04-20T23:11:39.710Z,31.70
2023-04-20T23:14:07.422Z,29.77
2023-04-20T23:16:34.420Z,31.90
2023-04-20T23:19:01.171Z,30.33
2023-04-20T23:21:28.540Z,32.17
2023-04-20T23:23:58.582Z,33.67
2023-04-20T23:26:25.209Z,32.67
2023-04-20T23:28:52.456Z,30.85
2023-04-20T23:31:20.094Z,34.33
2023-04-20T23:33:47.160Z,29.63
2023-04-20T23:36:13.717Z,34.42
2023-04-20T23:38:40.466Z,34.42
2023-04-20T23:41:10.875Z,29.35
2023-04-20T23:43:41.150Z,30.25
2023-04-20T23:46:08.382Z,33.88
2023-04-20T23:48:35.017Z,31.13
2023-04-20T23:51:01.705Z,34.75
2023-04-20T23:53:28.260Z,35.50
2023-04-20T23:55:59.749Z,31.20
2023-04-20T23:58:27.732Z,30.17
